East Ridge, TN (37412)

11:04 PM EDT on May 25, 2015 (GMT -0400)
Lazard St | | Change Station
CLOSE
Current Station
Personal Weather Station
Location: East Ridge, TN
Elevation: 722 ft
Nearby Weather Stations

Elev 722 ft 34.99 °N, 85.24 °W | Updated 18 seconds ago

Mostly Cloudy
Mostly Cloudy
66.1 °F
Feels Like 66.1 °F
N
0.0
Wind Variable Wind from East
Gusts 0.0 mph

Today
High -- | Low -- °F
--% Chance of Precip.
Yesterday
High -- | Low -- °F
Precip. -- in
6:31 AM 8:44 PM
First Quarter, 54% visible
Pressure 30.17 in
Visibility 6.0 miles
Clouds Mostly Cloudy 600 ft
Mostly Cloudy 20000 ft
Mostly Cloudy 25000 ft
Dew Point 66 °F
Humidity 98%
Rainfall 1.19 in
Snow Depth Not available.
UV 0 out of 12
Pollen 5.20 out of 12
Air Quality Not available.
Flu Activity Sporadic
METAR KCHA 260253Z 31003KT 6SM BR BKN006 BKN200 BKN250 19/19 A3019 RMK AO2 SLP217 60004 T01940189 55003 $

More Conditions Fewer Conditions

Pressure 30.17 in
Visibility 6.0 miles
Clouds Mostly Cloudy 600 ft
Mostly Cloudy 20000 ft
Mostly Cloudy 25000 ft
Dew Point 66 °F
Humidity 98%
Rainfall 1.19 in
Snow Depth Not available.
UV 0 out of 12
Pollen 5.20 out of 12
Air Quality Not available.
Flu Activity Sporadic
METAR KCHA 260253Z 31003KT 6SM BR BKN006 BKN200 BKN250 19/19 A3019 RMK AO2 SLP217 60004 T01940189 55003 $

More Conditions Fewer Conditions

10-Day Weather Forecast

Almanac

Astronomy

May. 25, 2015 Rise Set
Actual Time
Civil Twilight
Nautical Twilight
Astronomical Twilight
Moon
Length of Visible Light
Length of Day
Tomorrow will be .
, % of the Moon is Illuminated

Today's Extremes

State Highs State Lows

Community

WunderPhotos

Upload Photos

1,824,245 photos uploaded!

WunderBlogs® & News

Nearby

Air Quality

  Air Quality AQ Index Pollutant
Not available.

Snow Depth

Station Depth Elevation

Earthquake Activity

City Distance Mag. Time & Date
Minimum magnitude displayed is 2.5.

Coastal Water Temperatures

Place Temperature

Stations

Nearby Weather Stations

Station Location Temp. Windchill Dew Point Humidity Wind Precip. Elev Updated Type